sensor_id;sensor_type;location;lat;lon;timestamp;temperature;humidity
21090;DHT22;10703;51.020;6.128;2023-05-02T00:00:28;8.30;99.90
21090;DHT22;10703;51.020;6.128;2023-05-02T00:02:54;8.20;99.90
21090;DHT22;10703;51.020;6.128;2023-05-02T00:05:22;8.10;99.90
21090;DHT22;10703;51.020;6.128;2023-05-02T00:07:50;8.20;99.90
21090;DHT22;10703;51.020;6.128;2023-05-02T00:10:17;8.20;99.90
21090;DHT22;10703;51.020;6.128;2023-05-02T00:12:43;8.20;99.90
21090;DHT22;10703;51.020;6.128;2023-05-02T00:15:10;8.20;99.90
21090;DHT22;10703;51.020;6.128;2023-05-02T00:17:39;8.20;99.90
21090;DHT22;10703;51.020;6.128;2023-05-02T00:20:11;8.20;99.90
21090;DHT22;10703;51.020;6.128;2023-05-02T00:22:38;8.20;99.90
21090;DHT22;10703;51.020;6.128;2023-05-02T00:25:05;8.10;99.90
21090;DHT22;10703;51.020;6.128;2023-05-02T00:27:32;8.00;99.90
21090;DHT22;10703;51.020;6.128;2023-05-02T00:29:59;8.00;99.90
21090;DHT22;10703;51.020;6.128;2023-05-02T00:32:26;7.90;99.90
21090;DHT22;10703;51.020;6.128;2023-05-02T00:34:53;7.90;99.90
21090;DHT22;10703;51.020;6.128;2023-05-02T00:37:20;7.80;99.90
21090;DHT22;10703;51.020;6.128;2023-05-02T00:39:46;7.80;99.90
21090;DHT22;10703;51.020;6.128;2023-05-02T00:42:13;7.80;99.90
21090;DHT22;10703;51.020;6.128;2023-05-02T00:44:39;7.90;99.90
21090;DHT22;10703;51.020;6.128;2023-05-02T00:47:06;8.00;99.90
21090;DHT22;10703;51.020;6.128;2023-05-02T00:49:32;8.20;99.90
21090;DHT22;10703;51.020;6.128;2023-05-02T00:51:59;8.20;99.90
21090;DHT22;10703;51.020;6.128;2023-05-02T00:54:26;8.50;99.90
21090;DHT22;10703;51.020;6.128;2023-05-02T00:56:52;8.50;99.90
21090;DHT22;10703;51.020;6.128;2023-05-02T00:59:19;8.70;99.90
21090;DHT22;10703;51.020;6.128;2023-05-02T01:04:53;8.90;99.90
21090;DHT22;10703;51.020;6.128;2023-05-02T01:13:13;9.20;99.90
21090;DHT22;10703;51.020;6.128;2023-05-02T01:15:42;9.30;99.90
21090;DHT22;10703;51.020;6.128;2023-05-02T01:18:12;9.30;99.90
21090;DHT22;10703;51.020;6.128;2023-05-02T01:20:42;9.40;99.90
21090;DHT22;10703;51.020;6.128;2023-05-02T01:23:21;9.40;99.90
21090;DHT22;10703;51.020;6.128;2023-05-02T01:28:54;9.50;99.90
21090;DHT22;10703;51.020;6.128;2023-05-02T01:31:24;9.50;99.90
21090;DHT22;10703;51.020;6.128;2023-05-02T01:33:53;9.60;99.90
21090;DHT22;10703;51.020;6.128;2023-05-02T01:36:22;9.60;99.90
21090;DHT22;10703;51.020;6.128;2023-05-02T01:38:53;9.70;99.90
21090;DHT22;10703;51.020;6.128;2023-05-02T01:41:22;9.70;99.90
21090;DHT22;10703;51.020;6.128;2023-05-02T01:43:50;9.70;99.90
21090;DHT22;10703;51.020;6.128;2023-05-02T01:46:19;9.80;99.90
21090;DHT22;10703;51.020;6.128;2023-05-02T01:48:47;9.80;99.90
21090;DHT22;10703;51.020;6.128;2023-05-02T01:51:18;9.90;99.90
21090;DHT22;10703;51.020;6.128;2023-05-02T01:53:47;9.90;99.90
21090;DHT22;10703;51.020;6.128;2023-05-02T01:56:17;9.90;99.90
21090;DHT22;10703;51.020;6.128;2023-05-02T01:58:45;9.90;99.90
21090;DHT22;10703;51.020;6.128;2023-05-02T02:01:13;10.00;99.90
21090;DHT22;10703;51.020;6.128;2023-05-02T02:03:41;10.00;99.90
21090;DHT22;10703;51.020;6.128;2023-05-02T02:06:09;9.90;99.90
21090;DHT22;10703;51.020;6.128;2023-05-02T02:08:36;10.00;99.90
21090;DHT22;10703;51.020;6.128;2023-05-02T02:11:07;10.00;99.90
21090;DHT22;10703;51.020;6.128;2023-05-02T02:13:38;10.00;99.90
21090;DHT22;10703;51.020;6.128;2023-05-02T02:16:11;10.10;99.90
21090;DHT22;10703;51.020;6.128;2023-05-02T02:18:40;10.00;99.90
21090;DHT22;10703;51.020;6.128;2023-05-02T02:21:10;10.10;99.90
21090;DHT22;10703;51.020;6.128;2023-05-02T02:23:38;10.00;99.90
21090;DHT22;10703;51.020;6.128;2023-05-02T02:26:05;10.00;99.90
21090;DHT22;10703;51.020;6.128;2023-05-02T02:28:33;10.10;99.90
21090;DHT22;10703;51.020;6.128;2023-05-02T02:31:00;10.10;99.90
21090;DHT22;10703;51.020;6.128;2023-05-02T02:33:29;10.10;99.90
21090;DHT22;10703;51.020;6.128;2023-05-02T02:36:06;10.10;99.90
21090;DHT22;10703;51.020;6.128;2023-05-02T02:41:24;10.10;99.90
21090;DHT22;10703;51.020;6.128;2023-05-02T02:43:59;10.10;99.90
21090;DHT22;10703;51.020;6.128;2023-05-02T02:46:40;10.10;99.90
21090;DHT22;10703;51.020;6.128;2023-05-02T02:52:02;10.10;99.90
21090;DHT22;10703;51.020;6.128;2023-05-02T02:54:35;10.10;99.90
21090;DHT22;10703;51.020;6.128;2023-05-02T02:57:17;10.20;99.90
21090;DHT22;10703;51.020;6.128;2023-05-02T02:59:51;10.10;99.90
21090;DHT22;10703;51.020;6.128;2023-05-02T03:02:22;10.20;99.90
21090;DHT22;10703;51.020;6.128;2023-05-02T03:04:52;10.20;99.90
21090;DHT22;10703;51.020;6.128;2023-05-02T03:07:20;10.20;99.90
21090;DHT22;10703;51.020;6.128;2023-05-02T03:09:47;10.20;99.90
21090;DHT22;10703;51.020;6.128;2023-05-02T03:12:14;10.20;99.90
21090;DHT22;10703;51.020;6.128;2023-05-02T03:14:41;10.20;99.90
21090;DHT22;10703;51.020;6.128;2023-05-02T03:17:07;10.20;99.90
21090;DHT22;10703;51.020;6.128;2023-05-02T03:19:34;10.20;99.90
21090;DHT22;10703;51.020;6.128;2023-05-02T03:22:01;10.20;99.90
21090;DHT22;10703;51.020;6.128;2023-05-02T03:24:27;10.20;99.90
21090;DHT22;10703;51.020;6.128;2023-05-02T03:26:55;10.10;99.90
21090;DHT22;10703;51.020;6.128;2023-05-02T03:29:22;10.20;99.90
21090;DHT22;10703;51.020;6.128;2023-05-02T03:31:48;10.10;99.90
21090;DHT22;10703;51.020;6.128;2023-05-02T03:34:15;10.10;99.90
21090;DHT22;10703;51.020;6.128;2023-05-02T03:36:41;10.10;99.90
21090;DHT22;10703;51.020;6.128;2023-05-02T03:39:08;10.10;99.90
21090;DHT22;10703;51.020;6.128;2023-05-02T03:41:35;10.10;99.90
21090;DHT22;10703;51.020;6.128;2023-05-02T03:44:02;10.10;99.90
21090;DHT22;10703;51.020;6.128;2023-05-02T03:46:28;10.10;99.90
21090;DHT22;10703;51.020;6.128;2023-05-02T03:48:58;10.10;99.90
21090;DHT22;10703;51.020;6.128;2023-05-02T03:51:25;10.10;99.90
21090;DHT22;10703;51.020;6.128;2023-05-02T03:53:52;10.10;99.90
21090;DHT22;10703;51.020;6.128;2023-05-02T03:56:18;10.00;99.90
21090;DHT22;10703;51.020;6.128;2023-05-02T03:58:46;10.00;99.90
21090;DHT22;10703;51.020;6.128;2023-05-02T04:01:14;10.00;99.90
21090;DHT22;10703;51.020;6.128;2023-05-02T04:03:41;9.90;99.90
21090;DHT22;10703;51.020;6.128;2023-05-02T04:06:08;9.90;99.90
21090;DHT22;10703;51.020;6.128;2023-05-02T04:08:35;9.80;99.90
21090;DHT22;10703;51.020;6.128;2023-05-02T04:11:02;9.80;99.90
21090;DHT22;10703;51.020;6.128;2023-05-02T04:13:29;9.70;99.90
21090;DHT22;10703;51.020;6.128;2023-05-02T04:15:55;9.80;99.90
21090;DHT22;10703;51.020;6.128;2023-05-02T04:18:22;9.80;99.90
21090;DHT22;10703;51.020;6.128;2023-05-02T04:20:49;9.80;99.90
21090;DHT22;10703;51.020;6.128;2023-05-02T04:23:16;9.80;99.90
21090;DHT22;10703;51.020;6.128;2023-05-02T04:25:53;9.90;99.90
21090;DHT22;10703;51.020;6.128;2023-05-02T04:28:20;9.90;99.90
21090;DHT22;10703;51.020;6.128;2023-05-02T04:30:48;9.90;99.90
21090;DHT22;10703;51.020;6.128;2023-05-02T04:33:16;9.80;99.90
21090;DHT22;10703;51.020;6.128;2023-05-02T04:35:43;9.80;99.90
21090;DHT22;10703;51.020;6.128;2023-05-02T04:38:10;9.80;99.90
21090;DHT22;10703;51.020;6.128;2023-05-02T04:40:37;9.80;99.90
21090;DHT22;10703;51.020;6.128;2023-05-02T04:43:03;9.80;99.90
21090;DHT22;10703;51.020;6.128;2023-05-02T04:45:30;9.80;99.90
21090;DHT22;10703;51.020;6.128;2023-05-02T04:47:56;9.80;99.90
21090;DHT22;10703;51.020;6.128;2023-05-02T04:50:23;9.80;99.90
21090;DHT22;10703;51.020;6.128;2023-05-02T04:52:50;9.80;99.90
21090;DHT22;10703;51.020;6.128;2023-05-02T04:55:16;9.80;99.90
21090;DHT22;10703;51.020;6.128;2023-05-02T04:57:43;9.80;99.90
21090;DHT22;10703;51.020;6.128;2023-05-02T05:00:10;9.80;99.90
21090;DHT22;10703;51.020;6.128;2023-05-02T05:02:37;9.90;99.90
21090;DHT22;10703;51.020;6.128;2023-05-02T05:05:05;9.80;99.90
21090;DHT22;10703;51.020;6.128;2023-05-02T05:07:31;9.80;99.90
21090;DHT22;10703;51.020;6.128;2023-05-02T05:09:58;9.80;99.90
21090;DHT22;10703;51.020;6.128;2023-05-02T05:12:25;9.90;99.90
21090;DHT22;10703;51.020;6.128;2023-05-02T05:14:52;9.90;99.90
21090;DHT22;10703;51.020;6.128;2023-05-02T05:17:18;9.90;99.90
21090;DHT22;10703;51.020;6.128;2023-05-02T05:19:45;9.90;99.90
21090;DHT22;10703;51.020;6.128;2023-05-02T05:22:11;9.80;99.90
21090;DHT22;10703;51.020;6.128;2023-05-02T05:24:38;9.90;99.90
21090;DHT22;10703;51.020;6.128;2023-05-02T05:27:04;9.90;99.90
21090;DHT22;10703;51.020;6.128;2023-05-02T05:29:31;9.90;99.90
21090;DHT22;10703;51.020;6.128;2023-05-02T05:31:58;10.00;99.90
21090;DHT22;10703;51.020;6.128;2023-05-02T05:34:25;10.00;99.90
21090;DHT22;10703;51.020;6.128;2023-05-02T05:36:52;10.10;99.90
21090;DHT22;10703;51.020;6.128;2023-05-02T05:39:18;10.10;99.90
21090;DHT22;10703;51.020;6.128;2023-05-02T05:41:45;10.10;99.90
21090;DHT22;10703;51.020;6.128;2023-05-02T05:44:11;10.20;99.90
21090;DHT22;10703;51.020;6.128;2023-05-02T05:46:38;10.20;99.90
21090;DHT22;10703;51.020;6.128;2023-05-02T05:49:05;10.20;99.90
21090;DHT22;10703;51.020;6.128;2023-05-02T05:51:31;10.20;99.90
21090;DHT22;10703;51.020;6.128;2023-05-02T05:53:58;10.10;99.90
21090;DHT22;10703;51.020;6.128;2023-05-02T05:56:25;10.10;99.90
21090;DHT22;10703;51.020;6.128;2023-05-02T05:58:51;10.10;99.90
21090;DHT22;10703;51.020;6.128;2023-05-02T06:01:20;10.10;99.90
21090;DHT22;10703;51.020;6.128;2023-05-02T06:03:47;10.00;99.90
21090;DHT22;10703;51.020;6.128;2023-05-02T06:06:14;10.00;99.90
21090;DHT22;10703;51.020;6.128;2023-05-02T06:08:40;10.00;99.90
21090;DHT22;10703;51.020;6.128;2023-05-02T06:11:08;10.00;99.90
21090;DHT22;10703;51.020;6.128;2023-05-02T06:13:36;10.00;99.90
21090;DHT22;10703;51.020;6.128;2023-05-02T06:16:03;10.00;99.90
21090;DHT22;10703;51.020;6.128;2023-05-02T06:18:30;10.00;99.90
21090;DHT22;10703;51.020;6.128;2023-05-02T06:20:57;9.90;99.90
21090;DHT22;10703;51.020;6.128;2023-05-02T06:23:23;10.00;99.90
21090;DHT22;10703;51.020;6.128;2023-05-02T06:25:50;10.00;99.90
21090;DHT22;10703;51.020;6.128;2023-05-02T06:28:16;10.00;99.90
21090;DHT22;10703;51.020;6.128;2023-05-02T06:30:43;10.00;99.90
21090;DHT22;10703;51.020;6.128;2023-05-02T06:33:09;9.90;99.90
21090;DHT22;10703;51.020;6.128;2023-05-02T06:35:37;9.90;99.90
21090;DHT22;10703;51.020;6.128;2023-05-02T06:38:04;9.90;99.90
21090;DHT22;10703;51.020;6.128;2023-05-02T06:40:30;10.00;99.90
21090;DHT22;10703;51.020;6.128;2023-05-02T06:42:59;10.00;99.90
21090;DHT22;10703;51.020;6.128;2023-05-02T06:45:26;10.10;99.90
21090;DHT22;10703;51.020;6.128;2023-05-02T06:47:53;10.10;99.90
21090;DHT22;10703;51.020;6.128;2023-05-02T06:50:19;10.10;99.90
21090;DHT22;10703;51.020;6.128;2023-05-02T06:52:46;10.10;99.90
21090;DHT22;10703;51.020;6.128;2023-05-02T06:55:12;10.20;99.90
21090;DHT22;10703;51.020;6.128;2023-05-02T06:57:39;10.20;99.90
21090;DHT22;10703;51.020;6.128;2023-05-02T07:00:07;10.30;99.90
21090;DHT22;10703;51.020;6.128;2023-05-02T07:02:33;10.40;99.90
21090;DHT22;10703;51.020;6.128;2023-05-02T07:05:00;10.50;99.90
21090;DHT22;10703;51.020;6.128;2023-05-02T07:07:27;10.50;99.90
21090;DHT22;10703;51.020;6.128;2023-05-02T07:09:53;10.60;99.90
21090;DHT22;10703;51.020;6.128;2023-05-02T07:12:20;10.60;99.90
21090;DHT22;10703;51.020;6.128;2023-05-02T07:14:47;10.70;99.90
21090;DHT22;10703;51.020;6.128;2023-05-02T07:17:13;10.70;99.90
21090;DHT22;10703;51.020;6.128;2023-05-02T07:19:41;10.70;99.90
21090;DHT22;10703;51.020;6.128;2023-05-02T07:22:10;10.80;99.90
21090;DHT22;10703;51.020;6.128;2023-05-02T07:24:40;10.90;99.90
21090;DHT22;10703;51.020;6.128;2023-05-02T07:27:11;11.20;99.90
21090;DHT22;10703;51.020;6.128;2023-05-02T07:29:38;11.40;99.90
21090;DHT22;10703;51.020;6.128;2023-05-02T07:32:05;11.70;99.90
21090;DHT22;10703;51.020;6.128;2023-05-02T07:34:32;12.00;99.90
21090;DHT22;10703;51.020;6.128;2023-05-02T07:36:58;12.30;99.90
21090;DHT22;10703;51.020;6.128;2023-05-02T07:39:25;12.50;99.90
21090;DHT22;10703;51.020;6.128;2023-05-02T07:41:52;12.80;99.90
21090;DHT22;10703;51.020;6.128;2023-05-02T07:44:19;12.80;99.90
21090;DHT22;10703;51.020;6.128;2023-05-02T07:46:46;13.10;99.90
21090;DHT22;10703;51.020;6.128;2023-05-02T07:49:13;13.10;99.90
21090;DHT22;10703;51.020;6.128;2023-05-02T07:51:40;13.10;99.90
21090;DHT22;10703;51.020;6.128;2023-05-02T07:54:16;13.20;99.90
21090;DHT22;10703;51.020;6.128;2023-05-02T07:56:43;13.60;99.90
21090;DHT22;10703;51.020;6.128;2023-05-02T07:59:10;13.80;99.90
21090;DHT22;10703;51.020;6.128;2023-05-02T08:01:38;14.30;99.90
21090;DHT22;10703;51.020;6.128;2023-05-02T08:04:05;14.30;99.90
21090;DHT22;10703;51.020;6.128;2023-05-02T08:06:31;14.10;99.90
21090;DHT22;10703;51.020;6.128;2023-05-02T08:08:58;13.80;99.90
21090;DHT22;10703;51.020;6.128;2023-05-02T08:11:25;13.90;99.90
21090;DHT22;10703;51.020;6.128;2023-05-02T08:13:52;13.90;99.90
21090;DHT22;10703;51.020;6.128;2023-05-02T08:16:19;13.90;99.90
21090;DHT22;10703;51.020;6.128;2023-05-02T08:18:46;13.80;99.90
21090;DHT22;10703;51.020;6.128;2023-05-02T08:21:13;13.80;99.90
21090;DHT22;10703;51.020;6.128;2023-05-02T08:23:40;13.90;99.90
21090;DHT22;10703;51.020;6.128;2023-05-02T08:26:07;13.60;99.90
21090;DHT22;10703;51.020;6.128;2023-05-02T08:28:33;13.80;99.90
21090;DHT22;10703;51.020;6.128;2023-05-02T08:31:00;14.10;99.90
21090;DHT22;10703;51.020;6.128;2023-05-02T08:33:27;14.40;99.90
21090;DHT22;10703;51.020;6.128;2023-05-02T08:35:53;14.90;99.90
21090;DHT22;10703;51.020;6.128;2023-05-02T08:38:20;15.00;99.90
21090;DHT22;10703;51.020;6.128;2023-05-02T08:40:46;15.10;99.90
21090;DHT22;10703;51.020;6.128;2023-05-02T08:43:15;15.20;99.90
21090;DHT22;10703;51.020;6.128;2023-05-02T08:45:44;15.10;99.90
21090;DHT22;10703;51.020;6.128;2023-05-02T08:48:12;15.50;99.90
21090;DHT22;10703;51.020;6.128;2023-05-02T08:50:41;15.50;99.90
21090;DHT22;10703;51.020;6.128;2023-05-02T08:53:10;15.80;99.90
21090;DHT22;10703;51.020;6.128;2023-05-02T08:55:38;15.60;99.90
21090;DHT22;10703;51.020;6.128;2023-05-02T08:58:07;15.50;99.90
21090;DHT22;10703;51.020;6.128;2023-05-02T09:00:41;15.30;99.90
21090;DHT22;10703;51.020;6.128;2023-05-02T09:03:22;15.20;99.90
21090;DHT22;10703;51.020;6.128;2023-05-02T09:05:52;15.50;99.90
21090;DHT22;10703;51.020;6.128;2023-05-02T09:08:23;15.50;99.90
21090;DHT22;10703;51.020;6.128;2023-05-02T09:10:50;15.70;99.90
21090;DHT22;10703;51.020;6.128;2023-05-02T09:13:36;15.70;99.90
21090;DHT22;10703;51.020;6.128;2023-05-02T09:16:05;15.60;99.90
21090;DHT22;10703;51.020;6.128;2023-05-02T09:18:34;15.10;99.90
21090;DHT22;10703;51.020;6.128;2023-05-02T09:21:16;15.30;99.90
21090;DHT22;10703;51.020;6.128;2023-05-02T09:23:48;15.10;99.90
21090;DHT22;10703;51.020;6.128;2023-05-02T09:26:17;14.70;99.90
21090;DHT22;10703;51.020;6.128;2023-05-02T09:28:48;14.30;99.90
21090;DHT22;10703;51.020;6.128;2023-05-02T09:31:21;14.20;99.90
21090;DHT22;10703;51.020;6.128;2023-05-02T09:33:52;13.90;99.90
21090;DHT22;10703;51.020;6.128;2023-05-02T09:36:20;13.90;99.90
21090;DHT22;10703;51.020;6.128;2023-05-02T09:38:48;13.50;99.90
21090;DHT22;10703;51.020;6.128;2023-05-02T09:41:15;13.50;99.90
21090;DHT22;10703;51.020;6.128;2023-05-02T09:43:54;13.40;99.90
21090;DHT22;10703;51.020;6.128;2023-05-02T09:46:22;13.30;99.90
21090;DHT22;10703;51.020;6.128;2023-05-02T09:48:53;13.40;99.90
21090;DHT22;10703;51.020;6.128;2023-05-02T09:51:21;13.50;99.90
21090;DHT22;10703;51.020;6.128;2023-05-02T09:53:48;13.70;99.90
21090;DHT22;10703;51.020;6.128;2023-05-02T09:56:15;13.80;99.90
21090;DHT22;10703;51.020;6.128;2023-05-02T09:58:41;14.10;99.90
21090;DHT22;10703;51.020;6.128;2023-05-02T10:01:16;14.20;99.90
21090;DHT22;10703;51.020;6.128;2023-05-02T10:03:47;14.40;99.90
21090;DHT22;10703;51.020;6.128;2023-05-02T10:06:15;14.50;99.90
21090;DHT22;10703;51.020;6.128;2023-05-02T10:08:44;14.70;99.90
21090;DHT22;10703;51.020;6.128;2023-05-02T10:11:13;14.90;99.90
21090;DHT22;10703;51.020;6.128;2023-05-02T10:13:42;15.00;99.90
21090;DHT22;10703;51.020;6.128;2023-05-02T10:16:11;15.10;99.90
21090;DHT22;10703;51.020;6.128;2023-05-02T10:19:09;15.60;99.90
21090;DHT22;10703;51.020;6.128;2023-05-02T10:21:39;16.60;99.90
21090;DHT22;10703;51.020;6.128;2023-05-02T10:24:08;16.70;99.90
21090;DHT22;10703;51.020;6.128;2023-05-02T10:26:35;16.60;99.90
21090;DHT22;10703;51.020;6.128;2023-05-02T10:29:02;16.80;99.90
21090;DHT22;10703;51.020;6.128;2023-05-02T10:31:32;17.00;99.90
21090;DHT22;10703;51.020;6.128;2023-05-02T10:34:00;17.00;99.90
21090;DHT22;10703;51.020;6.128;2023-05-02T10:36:28;17.00;99.90
21090;DHT22;10703;51.020;6.128;2023-05-02T10:38:57;17.20;99.90
21090;DHT22;10703;51.020;6.128;2023-05-02T10:41:26;17.50;99.90
21090;DHT22;10703;51.020;6.128;2023-05-02T10:43:54;17.50;99.90
21090;DHT22;10703;51.020;6.128;2023-05-02T10:49:04;17.00;99.90
21090;DHT22;10703;51.020;6.128;2023-05-02T10:51:32;17.20;99.90
21090;DHT22;10703;51.020;6.128;2023-05-02T10:54:21;16.80;99.90
21090;DHT22;10703;51.020;6.128;2023-05-02T10:59:36;16.70;99.90
21090;DHT22;10703;51.020;6.128;2023-05-02T11:05:03;16.40;99.90
21090;DHT22;10703;51.020;6.128;2023-05-02T11:07:32;16.80;99.90
21090;DHT22;10703;51.020;6.128;2023-05-02T11:12:51;17.30;99.90
21090;DHT22;10703;51.020;6.128;2023-05-02T11:20:29;17.10;99.90
21090;DHT22;10703;51.020;6.128;2023-05-02T11:22:59;17.20;99.90
21090;DHT22;10703;51.020;6.128;2023-05-02T11:25:48;17.60;99.90
21090;DHT22;10703;51.020;6.128;2023-05-02T11:28:43;17.80;99.90
21090;DHT22;10703;51.020;6.128;2023-05-02T11:36:33;17.50;99.90
21090;DHT22;10703;51.020;6.128;2023-05-02T11:39:03;17.70;99.30
21090;DHT22;10703;51.020;6.128;2023-05-02T11:41:42;17.90;99.90
21090;DHT22;10703;51.020;6.128;2023-05-02T11:44:09;18.50;99.30
21090;DHT22;10703;51.020;6.128;2023-05-02T11:46:37;18.50;99.90
21090;DHT22;10703;51.020;6.128;2023-05-02T11:49:04;18.70;99.90
21090;DHT22;10703;51.020;6.128;2023-05-02T11:51:34;18.70;98.10
21090;DHT22;10703;51.020;6.128;2023-05-02T11:54:01;19.20;97.40
21090;DHT22;10703;51.020;6.128;2023-05-02T11:56:29;19.20;96.80
21090;DHT22;10703;51.020;6.128;2023-05-02T11:58:59;19.10;96.40
21090;DHT22;10703;51.020;6.128;2023-05-02T12:01:26;19.40;96.30
21090;DHT22;10703;51.020;6.128;2023-05-02T12:04:04;19.80;96.20
21090;DHT22;10703;51.020;6.128;2023-05-02T12:06:32;20.30;94.60
21090;DHT22;10703;51.020;6.128;2023-05-02T12:09:13;20.50;94.50
21090;DHT22;10703;51.020;6.128;2023-05-02T12:11:41;20.70;94.20
21090;DHT22;10703;51.020;6.128;2023-05-02T12:14:09;20.50;94.50
21090;DHT22;10703;51.020;6.128;2023-05-02T12:16:36;20.10;95.40
21090;DHT22;10703;51.020;6.128;2023-05-02T12:19:03;19.30;95.00
21090;DHT22;10703;51.020;6.128;2023-05-02T12:21:30;18.50;95.40
21090;DHT22;10703;51.020;6.128;2023-05-02T12:23:59;18.30;97.40
21090;DHT22;10703;51.020;6.128;2023-05-02T12:26:26;17.90;96.70
21090;DHT22;10703;51.020;6.128;2023-05-02T12:28:58;17.50;96.30
21090;DHT22;10703;51.020;6.128;2023-05-02T12:31:26;17.70;95.00
21090;DHT22;10703;51.020;6.128;2023-05-02T12:33:54;17.70;95.90
21090;DHT22;10703;51.020;6.128;2023-05-02T12:36:23;17.70;95.30
21090;DHT22;10703;51.020;6.128;2023-05-02T12:38:55;18.00;95.00
21090;DHT22;10703;51.020;6.128;2023-05-02T12:41:34;18.40;94.50
21090;DHT22;10703;51.020;6.128;2023-05-02T12:44:03;19.80;94.80
21090;DHT22;10703;51.020;6.128;2023-05-02T12:46:30;20.60;93.20
21090;DHT22;10703;51.020;6.128;2023-05-02T12:49:01;21.10;93.60
21090;DHT22;10703;51.020;6.128;2023-05-02T12:51:28;21.70;92.00
21090;DHT22;10703;51.020;6.128;2023-05-02T12:53:56;22.00;92.50
21090;DHT22;10703;51.020;6.128;2023-05-02T12:56:23;21.20;93.00
21090;DHT22;10703;51.020;6.128;2023-05-02T12:58:52;20.50;92.20
21090;DHT22;10703;51.020;6.128;2023-05-02T13:01:19;19.60;92.20
21090;DHT22;10703;51.020;6.128;2023-05-02T13:03:46;19.60;93.00
21090;DHT22;10703;51.020;6.128;2023-05-02T13:06:13;18.90;92.80
21090;DHT22;10703;51.020;6.128;2023-05-02T13:08:40;19.10;93.10
21090;DHT22;10703;51.020;6.128;2023-05-02T13:11:06;19.60;92.90
21090;DHT22;10703;51.020;6.128;2023-05-02T13:13:34;20.10;92.70
21090;DHT22;10703;51.020;6.128;2023-05-02T13:16:01;20.40;94.70
21090;DHT22;10703;51.020;6.128;2023-05-02T13:18:27;20.80;91.50
21090;DHT22;10703;51.020;6.128;2023-05-02T13:20:54;22.00;90.00
21090;DHT22;10703;51.020;6.128;2023-05-02T13:23:21;22.70;90.00
21090;DHT22;10703;51.020;6.128;2023-05-02T13:25:47;23.20;90.90
21090;DHT22;10703;51.020;6.128;2023-05-02T13:28:14;22.70;88.70
21090;DHT22;10703;51.020;6.128;2023-05-02T13:30:41;22.20;89.80
21090;DHT22;10703;51.020;6.128;2023-05-02T13:33:07;22.10;90.10
21090;DHT22;10703;51.020;6.128;2023-05-02T13:35:34;22.50;88.80
21090;DHT22;10703;51.020;6.128;2023-05-02T13:38:02;23.20;88.20
21090;DHT22;10703;51.020;6.128;2023-05-02T13:40:28;22.90;89.70
21090;DHT22;10703;51.020;6.128;2023-05-02T13:42:55;23.70;87.80
21090;DHT22;10703;51.020;6.128;2023-05-02T13:45:22;23.60;85.40
21090;DHT22;10703;51.020;6.128;2023-05-02T13:47:48;23.00;84.50
21090;DHT22;10703;51.020;6.128;2023-05-02T13:50:15;22.80;87.50
21090;DHT22;10703;51.020;6.128;2023-05-02T13:52:41;22.90;84.60
21090;DHT22;10703;51.020;6.128;2023-05-02T13:55:08;23.40;87.80
21090;DHT22;10703;51.020;6.128;2023-05-02T13:57:35;24.30;86.50
21090;DHT22;10703;51.020;6.128;2023-05-02T14:00:01;24.80;81.90
21090;DHT22;10703;51.020;6.128;2023-05-02T14:02:29;24.60;83.60
21090;DHT22;10703;51.020;6.128;2023-05-02T14:04:56;23.70;82.60
21090;DHT22;10703;51.020;6.128;2023-05-02T14:07:23;22.90;86.20
21090;DHT22;10703;51.020;6.128;2023-05-02T14:09:49;22.60;86.60
21090;DHT22;10703;51.020;6.128;2023-05-02T14:12:16;22.00;84.80
21090;DHT22;10703;51.020;6.128;2023-05-02T14:14:43;21.10;86.40
21090;DHT22;10703;51.020;6.128;2023-05-02T14:17:09;20.80;89.30
21090;DHT22;10703;51.020;6.128;2023-05-02T14:19:36;20.90;86.40
21090;DHT22;10703;51.020;6.128;2023-05-02T14:22:02;21.00;86.90
21090;DHT22;10703;51.020;6.128;2023-05-02T14:24:29;20.30;88.30
21090;DHT22;10703;51.020;6.128;2023-05-02T14:26:56;20.20;87.80
21090;DHT22;10703;51.020;6.128;2023-05-02T14:29:23;20.20;89.70
21090;DHT22;10703;51.020;6.128;2023-05-02T14:31:50;19.90;89.30
21090;DHT22;10703;51.020;6.128;2023-05-02T14:34:17;20.30;87.00
21090;DHT22;10703;51.020;6.128;2023-05-02T14:36:43;21.20;86.40
21090;DHT22;10703;51.020;6.128;2023-05-02T14:39:10;22.20;89.10
21090;DHT22;10703;51.020;6.128;2023-05-02T14:41:37;22.50;84.40
21090;DHT22;10703;51.020;6.128;2023-05-02T14:44:03;21.90;83.00
21090;DHT22;10703;51.020;6.128;2023-05-02T14:46:30;22.30;82.40
21090;DHT22;10703;51.020;6.128;2023-05-02T14:48:56;23.40;82.80
21090;DHT22;10703;51.020;6.128;2023-05-02T14:51:23;23.10;84.20
21090;DHT22;10703;51.020;6.128;2023-05-02T14:53:49;23.30;84.20
21090;DHT22;10703;51.020;6.128;2023-05-02T14:56:16;24.30;82.40
21090;DHT22;10703;51.020;6.128;2023-05-02T14:58:44;24.70;80.10
21090;DHT22;10703;51.020;6.128;2023-05-02T15:01:15;26.10;79.00
21090;DHT22;10703;51.020;6.128;2023-05-02T15:03:41;26.70;78.80
21090;DHT22;10703;51.020;6.128;2023-05-02T15:06:29;27.30;76.30
21090;DHT22;10703;51.020;6.128;2023-05-02T15:08:59;27.20;74.00
21090;DHT22;10703;51.020;6.128;2023-05-02T15:11:25;26.80;76.50
21090;DHT22;10703;51.020;6.128;2023-05-02T15:13:52;27.10;77.50
21090;DHT22;10703;51.020;6.128;2023-05-02T15:16:21;26.90;74.80
21090;DHT22;10703;51.020;6.128;2023-05-02T15:18:48;26.80;72.00
21090;DHT22;10703;51.020;6.128;2023-05-02T15:21:15;25.80;75.10
21090;DHT22;10703;51.020;6.128;2023-05-02T15:23:41;25.30;78.60
21090;DHT22;10703;51.020;6.128;2023-05-02T15:26:08;24.30;77.90
21090;DHT22;10703;51.020;6.128;2023-05-02T15:28:34;23.30;77.00
21090;DHT22;10703;51.020;6.128;2023-05-02T15:31:01;22.50;79.10
21090;DHT22;10703;51.020;6.128;2023-05-02T15:33:28;23.10;75.70
21090;DHT22;10703;51.020;6.128;2023-05-02T15:35:56;23.60;76.30
21090;DHT22;10703;51.020;6.128;2023-05-02T15:38:26;24.30;73.20
21090;DHT22;10703;51.020;6.128;2023-05-02T15:40:57;24.90;76.40
21090;DHT22;10703;51.020;6.128;2023-05-02T15:43:24;24.50;77.10
21090;DHT22;10703;51.020;6.128;2023-05-02T15:45:55;24.40;74.40
21090;DHT22;10703;51.020;6.128;2023-05-02T15:48:25;24.50;74.10
21090;DHT22;10703;51.020;6.128;2023-05-02T15:50:52;24.30;73.60
21090;DHT22;10703;51.020;6.128;2023-05-02T15:53:19;24.50;76.30
21090;DHT22;10703;51.020;6.128;2023-05-02T15:55:50;23.60;73.60
21090;DHT22;10703;51.020;6.128;2023-05-02T15:58:17;23.60;78.40
21090;DHT22;10703;51.020;6.128;2023-05-02T16:00:45;24.40;74.90
21090;DHT22;10703;51.020;6.128;2023-05-02T16:03:13;24.80;76.80
21090;DHT22;10703;51.020;6.128;2023-05-02T16:05:40;24.60;74.00
21090;DHT22;10703;51.020;6.128;2023-05-02T16:08:07;24.00;74.40
21090;DHT22;10703;51.020;6.128;2023-05-02T16:10:33;23.90;74.90
21090;DHT22;10703;51.020;6.128;2023-05-02T16:13:01;24.10;74.10
21090;DHT22;10703;51.020;6.128;2023-05-02T16:15:28;23.70;75.40
21090;DHT22;10703;51.020;6.128;2023-05-02T16:17:55;23.50;75.50
21090;DHT22;10703;51.020;6.128;2023-05-02T16:20:22;23.60;76.60